createdAt,value
2018-05-05T00:00:08.350Z,73.4
2018-05-05T00:01:09.042Z,73.5
2018-05-05T00:02:09.698Z,73.3
2018-05-05T00:03:10.356Z,73.3
2018-05-05T00:04:11.007Z,74.2
2018-05-05T00:05:11.665Z,73.8
2018-05-05T00:06:12.319Z,74.2
2018-05-05T00:07:12.973Z,74.5
2018-05-05T00:08:13.627Z,74.4
2018-05-05T00:09:14.283Z,75.2
2018-05-05T00:10:14.939Z,74.8
2018-05-05T00:11:15.594Z,74.9
2018-05-05T00:12:16.250Z,74.7
2018-05-05T00:13:16.904Z,74.9
2018-05-05T00:14:17.561Z,75.0
2018-05-05T00:15:18.214Z,74.7
2018-05-05T00:16:18.869Z,74.7
2018-05-05T00:17:19.530Z,75.3
2018-05-05T00:18:20.178Z,75.4
2018-05-05T00:19:20.835Z,75.4
2018-05-05T00:20:21.489Z,75.6
2018-05-05T00:21:22.144Z,75.7
2018-05-05T00:22:22.798Z,75.6
2018-05-05T00:23:23.455Z,75.8
2018-05-05T00:24:24.110Z,76.3
2018-05-05T00:25:24.764Z,76.4
2018-05-05T00:26:25.419Z,76.5
2018-05-05T00:27:26.080Z,76.1
2018-05-05T00:28:26.729Z,76.2
2018-05-05T00:29:27.383Z,76.3
2018-05-05T00:30:28.038Z,76.5
2018-05-05T00:31:28.692Z,76.5
2018-05-05T00:32:29.352Z,76.4
2018-05-05T00:33:30.004Z,77.0
2018-05-05T00:34:30.658Z,76.7
2018-05-05T00:35:31.359Z,76.3
2018-05-05T00:36:32.050Z,76.5
2018-05-05T00:37:32.737Z,77.2
2018-05-05T00:38:33.392Z,77.2
2018-05-05T00:39:34.046Z,77.8
2018-05-05T00:40:34.702Z,78.0
2018-05-05T00:41:35.354Z,77.9
2018-05-05T00:42:36.010Z,77.6
2018-05-05T00:43:36.662Z,77.7
2018-05-05T00:44:37.319Z,77.6
2018-05-05T00:45:37.973Z,77.8
2018-05-05T00:46:38.626Z,77.7
2018-05-05T00:47:39.285Z,78.1
2018-05-05T00:48:39.937Z,78.2
2018-05-05T00:49:40.592Z,78.4
2018-05-05T00:50:41.245Z,78.6
2018-05-05T00:51:41.900Z,79.3
2018-05-05T00:52:42.553Z,79.0
2018-05-05T00:53:43.218Z,79.1
2018-05-05T00:54:43.862Z,79.1
2018-05-05T00:55:44.517Z,79.0
2018-05-05T00:56:45.174Z,79.0
2018-05-05T00:57:45.825Z,78.8
2018-05-05T00:58:46.479Z,79.1
2018-05-05T00:59:47.132Z,78.8
2018-05-05T01:00:47.785Z,78.8
2018-05-05T01:01:48.440Z,78.3
2018-05-05T01:02:49.094Z,78.2
2018-05-05T01:03:49.746Z,78.3
2018-05-05T01:04:50.399Z,78.0
2018-05-05T01:05:51.054Z,77.8
2018-05-05T01:06:51.707Z,77.9
2018-05-05T01:07:52.364Z,77.6
2018-05-05T01:08:53.016Z,77.4
2018-05-05T01:09:53.670Z,77.0
2018-05-05T01:10:54.323Z,77.4
2018-05-05T01:11:54.974Z,77.4
2018-05-05T01:12:55.630Z,77.5
2018-05-05T01:13:56.319Z,77.3
2018-05-05T01:14:56.973Z,77.5
2018-05-05T01:15:57.626Z,76.9
2018-05-05T01:16:58.279Z,76.1
2018-05-05T01:17:58.933Z,76.6
2018-05-05T01:18:59.587Z,77.0
2018-05-05T01:20:00.241Z,76.9
2018-05-05T01:21:00.893Z,77.1
2018-05-05T01:22:01.549Z,76.4
2018-05-05T01:23:02.203Z,76.1
2018-05-05T01:24:02.857Z,76.6
2018-05-05T01:25:03.510Z,77.2
2018-05-05T01:26:04.177Z,77.2
2018-05-05T01:27:04.842Z,77.1
2018-05-05T01:28:05.508Z,77.3
2018-05-05T01:29:06.173Z,77.9
2018-05-05T01:30:06.838Z,77.6
2018-05-05T01:31:07.502Z,77.8
2018-05-05T01:32:08.172Z,77.7
2018-05-05T01:33:08.830Z,78.0
2018-05-05T01:34:09.493Z,78.3
2018-05-05T01:35:10.158Z,78.5
2018-05-05T01:36:10.823Z,78.7
2018-05-05T01:37:11.488Z,78.5
2018-05-05T01:38:12.154Z,78.8
2018-05-05T01:39:12.819Z,79.0
2018-05-05T01:40:13.521Z,78.7
2018-05-05T01:41:14.186Z,79.0
2018-05-05T01:42:14.851Z,79.1
2018-05-05T01:43:15.514Z,79.8
2018-05-05T01:44:16.178Z,79.6
2018-05-05T01:45:16.841Z,79.9
2018-05-05T01:46:17.504Z,79.9
2018-05-05T01:47:18.167Z,80.0
2018-05-05T01:48:18.830Z,80.4
2018-05-05T01:49:19.493Z,80.3
2018-05-05T01:50:20.158Z,80.3
2018-05-05T01:51:20.820Z,80.3
2018-05-05T01:52:21.485Z,80.4
2018-05-05T01:53:22.149Z,80.3
2018-05-05T01:54:22.812Z,80.6
2018-05-05T01:55:23.476Z,81.0
2018-05-05T01:56:24.147Z,81.0
2018-05-05T01:57:24.813Z,81.3
2018-05-05T01:58:25.514Z,81.1
2018-05-05T01:59:26.178Z,81.1
2018-05-05T02:00:26.842Z,81.0
2018-05-05T02:01:27.508Z,81.2
2018-05-05T02:02:28.170Z,81.5
2018-05-05T02:03:28.832Z,81.2
2018-05-05T02:04:29.495Z,81.8
2018-05-05T02:05:30.159Z,81.6
2018-05-05T02:06:30.822Z,81.4
2018-05-05T02:07:31.486Z,81.6
2018-05-05T02:08:32.148Z,81.5
2018-05-05T02:09:32.815Z,81.6
2018-05-05T02:10:33.479Z,81.8
2018-05-05T02:11:34.142Z,81.8
2018-05-05T02:12:34.809Z,81.9
2018-05-05T02:13:35.472Z,81.8
2018-05-05T02:14:36.134Z,81.9
2018-05-05T02:15:36.793Z,81.6
2018-05-05T02:16:37.456Z,81.6
2018-05-05T02:17:38.170Z,81.6
2018-05-05T02:18:38.833Z,81.4
2018-05-05T02:19:39.497Z,81.6
2018-05-05T02:20:40.199Z,81.6
2018-05-05T02:21:40.864Z,81.4
2018-05-05T02:22:41.536Z,81.6
2018-05-05T02:23:42.231Z,81.7
2018-05-05T02:24:42.895Z,81.4
2018-05-05T02:25:43.562Z,81.5
2018-05-05T02:26:44.224Z,81.6
2018-05-05T02:27:44.889Z,81.6
2018-05-05T02:28:45.551Z,81.7
2018-05-05T02:29:46.215Z,81.6
2018-05-05T02:30:46.882Z,81.5
2018-05-05T02:31:47.579Z,81.8
2018-05-05T02:32:48.241Z,81.9
2018-05-05T02:33:48.902Z,81.7
2018-05-05T02:34:49.564Z,82.3
2018-05-05T02:35:50.228Z,82.4
2018-05-05T02:36:50.890Z,82.4
2018-05-05T02:37:51.551Z,82.5
2018-05-05T02:38:52.214Z,82.3
2018-05-05T02:39:52.878Z,82.2
2018-05-05T02:40:53.540Z,82.8
2018-05-05T02:41:54.202Z,82.5
2018-05-05T02:42:54.905Z,82.3
2018-05-05T02:43:55.606Z,82.6
2018-05-05T02:44:56.307Z,82.8
2018-05-05T02:45:56.972Z,83.1
2018-05-05T02:46:57.635Z,82.6
2018-05-05T02:47:58.351Z,83.0
2018-05-05T02:48:59.011Z,82.7
2018-05-05T02:49:59.675Z,82.8
2018-05-05T02:51:00.340Z,82.6
2018-05-05T02:52:01.003Z,83.4
2018-05-05T02:53:01.701Z,83.1
2018-05-05T02:54:02.367Z,83.7
2018-05-05T02:55:03.033Z,83.4
2018-05-05T02:56:03.693Z,83.6
2018-05-05T02:57:04.355Z,83.4
2018-05-05T02:58:05.019Z,83.5
2018-05-05T02:59:05.683Z,84.2
2018-05-05T03:00:06.346Z,84.1
2018-05-05T03:01:07.044Z,83.4
2018-05-05T03:02:07.727Z,83.5
2018-05-05T03:03:08.422Z,83.6
2018-05-05T03:04:09.119Z,83.6
2018-05-05T03:05:09.781Z,82.9
2018-05-05T03:06:10.444Z,83.2
2018-05-05T03:07:11.105Z,83.2
2018-05-05T03:08:11.773Z,83.5
2018-05-05T03:09:12.432Z,83.6
2018-05-05T03:10:13.094Z,83.4
2018-05-05T03:11:13.758Z,83.5
2018-05-05T03:12:14.419Z,83.4
2018-05-05T03:13:15.083Z,83.3
2018-05-05T03:14:15.747Z,83.2
2018-05-05T03:15:16.417Z,83.3
2018-05-05T03:16:17.077Z,83.3
2018-05-05T03:17:17.740Z,83.4
2018-05-05T03:18:18.453Z,83.2
2018-05-05T03:19:19.115Z,83.7
2018-05-05T03:20:19.778Z,83.5
2018-05-05T03:21:20.445Z,83.6
2018-05-05T03:22:21.113Z,83.5
2018-05-05T03:23:21.773Z,83.4
2018-05-05T03:24:22.437Z,83.4
2018-05-05T03:25:23.100Z,83.1
2018-05-05T03:26:23.800Z,83.3
2018-05-05T03:27:24.464Z,83.5
2018-05-05T03:28:25.128Z,84.1
2018-05-05T03:29:25.793Z,83.9
2018-05-05T03:30:26.493Z,84.1
2018-05-05T03:31:27.156Z,84.1
2018-05-05T03:32:27.818Z,84.3
2018-05-05T03:33:28.482Z,84.3
2018-05-05T03:34:29.146Z,84.3
2018-05-05T03:35:29.810Z,84.4
2018-05-05T03:36:30.475Z,84.6
2018-05-05T03:37:31.140Z,84.4
2018-05-05T03:38:31.805Z,84.4
2018-05-05T03:39:32.472Z,84.9
2018-05-05T03:40:33.134Z,84.5
2018-05-05T03:41:33.798Z,84.4
2018-05-05T03:42:34.463Z,84.5
2018-05-05T03:43:35.127Z,84.3
2018-05-05T03:44:35.793Z,84.4
2018-05-05T03:45:36.457Z,83.8
2018-05-05T03:46:37.122Z,84.6
2018-05-05T03:47:37.786Z,84.4
2018-05-05T03:48:38.450Z,84.5
2018-05-05T03:49:39.116Z,84.4
2018-05-05T03:50:39.782Z,84.5
2018-05-05T03:51:40.450Z,84.5
2018-05-05T03:52:41.113Z,85.2
2018-05-05T03:53:41.779Z,85.1
2018-05-05T03:54:42.446Z,84.3
2018-05-05T03:55:43.112Z,84.6
2018-05-05T03:56:43.777Z,84.5
2018-05-05T03:57:44.443Z,84.5
2018-05-05T03:58:45.109Z,84.0
2018-05-05T03:59:45.774Z,84.1
2018-05-05T04:00:46.443Z,84.1
2018-05-05T04:01:47.109Z,84.0
2018-05-05T04:02:47.775Z,84.0
2018-05-05T04:03:48.441Z,84.0
2018-05-05T04:04:49.109Z,83.2
2018-05-05T04:05:49.773Z,83.3
2018-05-05T04:06:50.438Z,83.5
2018-05-05T04:07:51.106Z,83.3
2018-05-05T04:08:51.809Z,83.7
2018-05-05T04:09:52.479Z,83.4
2018-05-05T04:10:53.140Z,83.7
2018-05-05T04:11:53.810Z,83.5
2018-05-05T04:12:54.474Z,83.4
2018-05-05T04:13:55.140Z,83.1
2018-05-05T04:14:55.806Z,83.3
2018-05-05T04:15:56.473Z,83.5
2018-05-05T04:16:57.139Z,83.4
2018-05-05T04:17:57.807Z,83.4
2018-05-05T04:18:58.509Z,83.6
2018-05-05T04:19:59.175Z,82.9
2018-05-05T04:20:59.843Z,82.5
2018-05-05T04:22:00.511Z,82.4
2018-05-05T04:23:01.180Z,82.5
2018-05-05T04:24:01.846Z,82.0
2018-05-05T04:25:02.515Z,81.3
2018-05-05T04:26:03.181Z,81.6
2018-05-05T04:27:03.847Z,81.4
2018-05-05T04:28:04.517Z,81.8
2018-05-05T04:29:05.185Z,81.8
2018-05-05T04:30:05.851Z,81.7
2018-05-05T04:31:06.520Z,81.3
2018-05-05T04:32:07.187Z,81.1
2018-05-05T04:33:07.853Z,81.1
2018-05-05T04:34:08.770Z,80.7
2018-05-05T04:35:09.436Z,80.8
2018-05-05T04:36:10.104Z,80.2
2018-05-05T04:37:10.774Z,80.5
2018-05-05T04:38:11.441Z,80.2
2018-05-05T04:39:12.145Z,79.7
2018-05-05T04:40:12.815Z,79.9
2018-05-05T04:41:13.480Z,80.1
2018-05-05T04:42:14.147Z,80.2
2018-05-05T04:43:14.817Z,80.4
2018-05-05T04:44:15.517Z,80.2
2018-05-05T04:45:16.183Z,79.9
2018-05-05T04:46:16.854Z,79.7
2018-05-05T04:47:17.521Z,79.5
2018-05-05T04:48:18.187Z,79.2
2018-05-05T04:49:18.854Z,79.6
2018-05-05T04:50:19.523Z,79.5
2018-05-05T04:51:20.193Z,79.2
2018-05-05T04:52:20.856Z,78.9
2018-05-05T04:53:21.523Z,78.7
2018-05-05T04:54:22.194Z,78.9
2018-05-05T04:55:22.860Z,78.8
2018-05-05T04:56:23.532Z,78.5
2018-05-05T04:57:24.194Z,78.9
2018-05-05T04:58:24.861Z,78.9
2018-05-05T04:59:25.530Z,79.0
2018-05-05T05:00:26.201Z,79.0
2018-05-05T05:01:26.908Z,78.9
2018-05-05T05:02:27.575Z,78.7
2018-05-05T05:03:28.280Z,78.5
2018-05-05T05:04:28.947Z,78.9
2018-05-05T05:05:29.614Z,78.4
2018-05-05T05:06:30.283Z,78.9
2018-05-05T05:07:30.949Z,78.8
2018-05-05T05:08:31.617Z,78.6
2018-05-05T05:09:32.286Z,78.6
2018-05-05T05:10:32.954Z,78.1
2018-05-05T05:11:33.624Z,78.2
2018-05-05T05:12:34.290Z,78.1
2018-05-05T05:13:35.001Z,77.8
2018-05-05T05:14:35.663Z,77.7
2018-05-05T05:15:36.331Z,77.6
2018-05-05T05:16:37.001Z,77.6
2018-05-05T05:17:37.703Z,77.9
2018-05-05T05:18:38.372Z,77.9
2018-05-05T05:19:39.108Z,77.7
2018-05-05T05:20:39.707Z,77.7
2018-05-05T05:21:40.376Z,77.6
2018-05-05T05:22:41.043Z,77.2
2018-05-05T05:23:41.711Z,77.5
2018-05-05T05:24:42.381Z,77.4
2018-05-05T05:25:43.048Z,77.4
2018-05-05T05:26:43.717Z,77.3
2018-05-05T05:27:44.384Z,77.0
2018-05-05T05:28:45.100Z,76.8
2018-05-05T05:29:45.750Z,77.3
2018-05-05T05:30:46.419Z,76.5
2018-05-05T05:31:47.088Z,76.3
2018-05-05T05:32:47.754Z,76.3
2018-05-05T05:33:48.421Z,76.5
2018-05-05T05:34:49.093Z,77.1
2018-05-05T05:35:49.759Z,76.7
2018-05-05T05:36:50.427Z,76.4
2018-05-05T05:37:51.099Z,76.0
2018-05-05T05:38:51.815Z,75.8
2018-05-05T05:39:52.469Z,76.3
2018-05-05T05:40:53.140Z,76.1
2018-05-05T05:41:53.805Z,76.0
2018-05-05T05:42:54.472Z,76.5
2018-05-05T05:43:55.142Z,75.4
2018-05-05T05:44:55.811Z,75.2
2018-05-05T05:45:56.481Z,75.0
2018-05-05T05:46:57.186Z,75.4
2018-05-05T05:47:57.823Z,75.1
2018-05-05T05:48:58.490Z,75.1
2018-05-05T05:49:59.162Z,75.9
2018-05-05T05:50:59.828Z,75.2
2018-05-05T05:52:00.496Z,75.8
2018-05-05T05:53:01.166Z,75.4
2018-05-05T05:54:01.837Z,75.9
2018-05-05T05:55:02.506Z,75.7
2018-05-05T05:56:03.213Z,75.4
2018-05-05T05:57:03.883Z,75.6
2018-05-05T05:58:04.552Z,75.8
2018-05-05T05:59:05.222Z,75.9
2018-05-05T06:00:05.900Z,75.7
2018-05-05T06:01:06.558Z,75.8
2018-05-05T06:02:07.228Z,75.2
2018-05-05T06:03:07.900Z,75.4
2018-05-05T06:04:08.568Z,75.3
2018-05-05T06:05:09.238Z,75.2
2018-05-05T06:06:09.910Z,75.3
2018-05-05T06:07:10.580Z,75.3
2018-05-05T06:08:11.254Z,74.6
2018-05-05T06:09:11.923Z,74.7
2018-05-05T06:10:12.594Z,74.9
2018-05-05T06:11:13.271Z,74.4
2018-05-05T06:12:13.937Z,74.5
2018-05-05T06:13:14.605Z,74.5
2018-05-05T06:14:15.278Z,74.3
2018-05-05T06:15:15.946Z,74.7
2018-05-05T06:16:16.617Z,74.7
2018-05-05T06:17:17.288Z,74.3
2018-05-05T06:18:17.990Z,74.3
2018-05-05T06:19:18.629Z,74.3
2018-05-05T06:20:19.300Z,74.2
2018-05-05T06:21:19.971Z,74.2
2018-05-05T06:22:20.642Z,74.3
2018-05-05T06:23:21.315Z,74.2
2018-05-05T06:24:21.987Z,72.4
2018-05-05T06:25:22.659Z,70.5
2018-05-05T06:26:23.382Z,67.4
2018-05-05T06:27:24.031Z,64.7
2018-05-05T06:28:24.714Z,61.4
2018-05-05T06:29:25.417Z,58.1
2018-05-05T06:30:26.100Z,55.8
2018-05-05T06:31:26.772Z,53.0
2018-05-05T06:32:27.447Z,50.8
2018-05-05T06:33:28.120Z,49.0
2018-05-05T06:34:28.795Z,46.5
2018-05-05T06:35:29.470Z,45.8
2018-05-05T06:36:30.145Z,43.2
2018-05-05T06:37:30.821Z,41.1
2018-05-05T06:38:31.498Z,39.7
2018-05-05T06:39:32.179Z,38.9
2018-05-05T06:40:32.851Z,38.0
2018-05-05T06:41:33.529Z,36.1
2018-05-05T06:42:34.206Z,35.1
2018-05-05T06:43:34.886Z,34.5
2018-05-05T06:44:35.562Z,33.7
2018-05-05T06:45:36.242Z,33.2
2018-05-05T06:46:36.919Z,32.5
2018-05-05T06:47:37.599Z,31.8
2018-05-05T06:48:38.279Z,31.9
2018-05-05T06:49:38.959Z,31.1
2018-05-05T06:50:39.638Z,30.7
2018-05-05T06:51:40.320Z,30.4
2018-05-05T06:52:41.001Z,29.8
2018-05-05T06:53:41.681Z,29.1
2018-05-05T06:54:42.362Z,28.7
2018-05-05T06:55:43.043Z,28.7
2018-05-05T06:56:43.758Z,28.6
2018-05-05T06:57:44.440Z,28.0
2018-05-05T06:58:45.120Z,27.3
2018-05-05T06:59:45.802Z,27.8
2018-05-05T07:00:46.482Z,27.9
2018-05-05T07:01:47.163Z,27.7
2018-05-05T07:02:47.919Z,27.6
2018-05-05T07:03:48.535Z,27.9
2018-05-05T07:04:49.211Z,27.2
2018-05-05T07:05:49.893Z,27.7
2018-05-05T07:06:50.576Z,27.8
2018-05-05T07:07:51.259Z,27.9
2018-05-05T07:08:52.019Z,28.0
2018-05-05T07:09:52.653Z,27.9
2018-05-05T07:10:53.334Z,27.8
2018-05-05T07:11:54.054Z,27.9
2018-05-05T07:12:54.736Z,27.3
2018-05-05T07:13:55.422Z,26.7
2018-05-05T07:14:56.107Z,26.7
2018-05-05T07:15:56.830Z,25.6
2018-05-05T07:16:57.510Z,25.1
2018-05-05T07:17:58.197Z,25.4
2018-05-05T07:18:58.880Z,25.6
2018-05-05T07:19:59.565Z,25.6
2018-05-05T07:21:00.248Z,25.6
2018-05-05T07:22:00.933Z,25.2
2018-05-05T07:23:01.657Z,25.0
2018-05-05T07:24:02.339Z,24.8
2018-05-05T07:25:03.129Z,24.4
2018-05-05T07:26:03.707Z,24.3
2018-05-05T07:27:04.390Z,24.0
2018-05-05T07:28:05.075Z,23.9
2018-05-05T07:29:05.759Z,23.6
2018-05-05T07:30:06.480Z,23.7
2018-05-05T07:31:07.127Z,23.3
2018-05-05T07:32:07.815Z,23.5
2018-05-05T07:33:08.495Z,23.5
2018-05-05T07:34:09.179Z,23.4
2018-05-05T07:35:09.865Z,23.1
2018-05-05T07:36:10.546Z,23.1
2018-05-05T07:37:11.229Z,23.0
2018-05-05T07:38:11.951Z,23.2
2018-05-05T07:39:12.634Z,23.3
2018-05-05T07:40:13.316Z,23.2
2018-05-05T07:41:14.002Z,22.9
2018-05-05T07:42:14.688Z,22.7
2018-05-05T07:43:15.371Z,22.1
2018-05-05T07:44:16.058Z,22.5
2018-05-05T07:45:16.740Z,22.4
2018-05-05T07:46:17.424Z,22.2
2018-05-05T07:47:18.108Z,22.2
2018-05-05T07:48:18.790Z,22.1
2018-05-05T07:49:19.473Z,22.1
2018-05-05T07:50:20.159Z,22.4
2018-05-05T07:51:20.843Z,21.8
2018-05-05T07:52:21.526Z,21.5
2018-05-05T07:53:22.209Z,21.6
2018-05-05T07:54:22.892Z,21.8
2018-05-05T07:55:23.575Z,21.0
2018-05-05T07:56:24.257Z,21.0
2018-05-05T07:57:24.940Z,21.0
2018-05-05T07:58:25.662Z,20.9
2018-05-05T07:59:26.361Z,21.2
2018-05-05T08:00:27.023Z,21.2
2018-05-05T08:01:27.709Z,21.1
2018-05-05T08:02:28.390Z,21.4
2018-05-05T08:03:29.072Z,21.8
2018-05-05T08:04:29.755Z,22.1
2018-05-05T08:05:30.438Z,21.6
2018-05-05T08:06:31.121Z,21.2
2018-05-05T08:07:31.804Z,21.2
2018-05-05T08:08:32.486Z,21.8
2018-05-05T08:09:33.169Z,21.3
2018-05-05T08:10:33.855Z,21.8
2018-05-05T08:11:34.570Z,22.2
2018-05-05T08:12:35.291Z,21.8
2018-05-05T08:13:35.977Z,21.8
2018-05-05T08:14:36.660Z,21.0
2018-05-05T08:15:37.344Z,21.0
2018-05-05T08:16:38.030Z,20.8
2018-05-05T08:17:38.744Z,21.8
2018-05-05T08:18:39.426Z,21.8
2018-05-05T08:19:40.113Z,21.2
2018-05-05T08:20:40.793Z,21.5
2018-05-05T08:21:41.476Z,21.1
2018-05-05T08:22:42.207Z,22.2
2018-05-05T08:23:42.843Z,23.0
2018-05-05T08:24:43.528Z,23.0
2018-05-05T08:25:44.210Z,22.9
2018-05-05T08:26:44.898Z,22.0
2018-05-05T08:27:45.576Z,21.9
2018-05-05T08:28:46.260Z,22.4
2018-05-05T08:29:46.947Z,22.1
2018-05-05T08:30:47.627Z,22.1
2018-05-05T08:31:48.311Z,21.8
2018-05-05T08:32:48.996Z,21.8
2018-05-05T08:33:49.681Z,21.5
2018-05-05T08:34:50.362Z,21.1
2018-05-05T08:35:51.083Z,21.1
2018-05-05T08:36:51.765Z,21.0
2018-05-05T08:37:52.448Z,20.9
2018-05-05T08:38:53.132Z,21.0
2018-05-05T08:39:53.818Z,21.2
2018-05-05T08:40:54.504Z,21.5
2018-05-05T08:41:55.225Z,21.0
2018-05-05T08:42:55.909Z,21.8
2018-05-05T08:43:56.598Z,22.2
2018-05-05T08:44:57.309Z,22.2
2018-05-05T08:45:57.991Z,21.8
2018-05-05T08:46:58.678Z,22.2
2018-05-05T08:47:59.361Z,21.1
2018-05-05T08:49:00.045Z,21.4
2018-05-05T08:50:00.727Z,21.2
2018-05-05T08:51:01.410Z,21.0
2018-05-05T08:52:02.095Z,21.1
2018-05-05T08:53:02.776Z,21.0
2018-05-05T08:54:03.458Z,21.0
2018-05-05T08:55:04.179Z,20.9
2018-05-05T08:56:04.862Z,21.0
2018-05-05T08:57:05.545Z,21.1
2018-05-05T08:58:06.228Z,21.1
2018-05-05T08:59:06.910Z,22.2
2018-05-05T09:00:07.593Z,22.4
2018-05-05T09:01:08.281Z,21.8
2018-05-05T09:02:08.995Z,21.9
2018-05-05T09:03:09.690Z,22.4
2018-05-05T09:04:10.363Z,22.3
2018-05-05T09:05:11.049Z,21.8
2018-05-05T09:06:11.731Z,21.3
2018-05-05T09:07:12.413Z,21.9
2018-05-05T09:08:13.097Z,21.8
2018-05-05T09:09:13.780Z,21.9
2018-05-05T09:10:14.462Z,21.8
2018-05-05T09:11:15.148Z,22.0
2018-05-05T09:12:15.827Z,21.5
2018-05-05T09:13:16.510Z,20.9
2018-05-05T09:14:17.193Z,21.7
2018-05-05T09:15:17.874Z,22.5
2018-05-05T09:16:18.558Z,22.1
2018-05-05T09:17:19.240Z,21.9
2018-05-05T09:18:19.921Z,21.8
2018-05-05T09:19:20.605Z,22.2
2018-05-05T09:20:21.287Z,22.1
2018-05-05T09:21:21.969Z,21.7
2018-05-05T09:22:22.651Z,22.0
2018-05-05T09:23:23.333Z,21.9
2018-05-05T09:24:24.019Z,21.5
2018-05-05T09:25:24.698Z,22.0
2018-05-05T09:26:25.383Z,21.9
2018-05-05T09:27:26.062Z,22.0
2018-05-05T09:28:26.743Z,22.9
2018-05-05T09:29:27.429Z,22.8
2018-05-05T09:30:28.109Z,22.3
2018-05-05T09:31:28.794Z,21.8
2018-05-05T09:32:29.473Z,21.4
2018-05-05T09:33:30.154Z,22.0
2018-05-05T09:34:30.838Z,21.9
2018-05-05T09:35:31.521Z,22.1
2018-05-05T09:36:32.202Z,22.1
2018-05-05T09:37:32.884Z,22.9
2018-05-05T09:38:33.565Z,22.9
2018-05-05T09:39:34.246Z,23.2
2018-05-05T09:40:34.929Z,23.0
2018-05-05T09:41:35.612Z,23.1
2018-05-05T09:42:36.307Z,23.2
2018-05-05T09:43:36.974Z,23.4
2018-05-05T09:44:37.658Z,23.6
2018-05-05T09:45:38.338Z,23.5
2018-05-05T09:46:39.020Z,23.6
2018-05-05T09:47:39.708Z,23.8
2018-05-05T09:48:40.384Z,23.8
2018-05-05T09:49:41.065Z,23.5
2018-05-05T09:50:41.748Z,23.5
2018-05-05T09:51:42.431Z,23.2
2018-05-05T09:52:43.112Z,23.3
2018-05-05T09:53:43.799Z,23.3
2018-05-05T09:54:44.476Z,23.5
2018-05-05T09:55:45.158Z,23.8
2018-05-05T09:56:45.840Z,24.2
2018-05-05T09:57:46.524Z,24.3
2018-05-05T09:58:47.203Z,24.5
2018-05-05T09:59:47.889Z,24.7
2018-05-05T10:00:48.641Z,25.1
2018-05-05T10:01:49.251Z,25.3
2018-05-05T10:02:49.932Z,25.6
2018-05-05T10:03:50.613Z,25.9
2018-05-05T10:04:51.295Z,26.1
2018-05-05T10:05:51.977Z,25.8
2018-05-05T10:07:54.317Z,26.7
2018-05-05T10:08:54.992Z,26.7
2018-05-05T10:09:55.657Z,27.0
2018-05-05T10:10:56.326Z,26.8
2018-05-05T10:11:56.994Z,26.4
2018-05-05T10:12:57.667Z,26.8
2018-05-05T10:13:58.339Z,27.0
2018-05-05T10:14:59.011Z,27.6
2018-05-05T10:15:59.788Z,27.1
2018-05-05T10:17:00.351Z,27.4
2018-05-05T10:18:01.022Z,27.9
2018-05-05T10:19:01.694Z,28.4
2018-05-05T10:20:02.362Z,27.9
2018-05-05T10:21:03.033Z,28.7
2018-05-05T10:22:03.703Z,28.9
2018-05-05T10:23:04.373Z,29.0
2018-05-05T10:24:05.043Z,30.0
2018-05-05T10:25:05.713Z,30.4
2018-05-05T10:26:06.382Z,30.4
2018-05-05T10:27:07.053Z,30.3
2018-05-05T10:28:07.810Z,31.3
2018-05-05T10:29:08.484Z,31.6
2018-05-05T10:30:09.149Z,31.5
2018-05-05T10:31:09.817Z,31.4
2018-05-05T10:32:10.489Z,31.8
2018-05-05T10:33:11.154Z,32.8
2018-05-05T10:34:11.822Z,33.6
2018-05-05T10:35:12.492Z,33.7
2018-05-05T10:36:13.161Z,34.3
2018-05-05T10:37:13.830Z,35.0
2018-05-05T10:38:14.553Z,35.1
2018-05-05T10:39:15.239Z,35.7
2018-05-05T10:40:15.886Z,37.3
2018-05-05T10:41:16.556Z,36.9
2018-05-05T10:42:17.226Z,37.0
2018-05-05T10:43:17.930Z,36.8
2018-05-05T10:44:18.596Z,36.9
2018-05-05T10:45:19.264Z,37.1
2018-05-05T10:46:19.968Z,37.9
2018-05-05T10:47:20.636Z,38.2
2018-05-05T10:48:21.306Z,38.3
2018-05-05T10:49:22.010Z,38.0
2018-05-05T10:50:22.678Z,38.3
2018-05-05T10:51:23.418Z,38.7
2018-05-05T10:52:24.012Z,38.1
2018-05-05T10:53:24.680Z,37.3
2018-05-05T10:54:25.348Z,37.1
2018-05-05T10:55:26.017Z,37.2
2018-05-05T10:56:26.686Z,37.6
2018-05-05T10:57:27.390Z,38.0
2018-05-05T10:58:28.059Z,38.2
2018-05-05T10:59:28.724Z,36.6
2018-05-05T11:00:29.391Z,37.0
2018-05-05T11:01:30.076Z,36.8
2018-05-05T11:02:30.758Z,36.4
2018-05-05T11:03:31.425Z,36.8
2018-05-05T11:04:32.094Z,37.1
2018-05-05T11:05:32.763Z,37.1
2018-05-05T11:06:33.431Z,37.5
2018-05-05T11:07:34.099Z,38.0
2018-05-05T11:08:34.766Z,37.9
2018-05-05T11:09:35.435Z,37.1
2018-05-05T11:10:36.103Z,36.9
2018-05-05T11:11:36.770Z,37.0
2018-05-05T11:12:37.437Z,36.5
2018-05-05T11:13:38.104Z,36.5
2018-05-05T11:14:38.773Z,36.3
2018-05-05T11:15:39.477Z,36.9
2018-05-05T11:16:40.149Z,36.7
2018-05-05T11:17:40.814Z,37.1
2018-05-05T11:18:41.480Z,36.9
2018-05-05T11:19:42.147Z,36.8
2018-05-05T11:20:42.813Z,37.4
2018-05-05T11:21:43.483Z,38.2
2018-05-05T11:22:44.151Z,38.0
2018-05-05T11:23:44.881Z,37.4
2018-05-05T11:24:45.534Z,37.5
2018-05-05T11:25:46.200Z,37.8
2018-05-05T11:26:46.872Z,38.1
2018-05-05T11:27:47.535Z,38.0
2018-05-05T11:28:48.203Z,38.5
2018-05-05T11:29:48.942Z,38.4
2018-05-05T11:30:49.542Z,38.8
2018-05-05T11:31:50.212Z,38.7
2018-05-05T11:32:50.872Z,38.8
2018-05-05T11:33:51.544Z,38.8
2018-05-05T11:34:52.208Z,38.7
2018-05-05T11:35:52.876Z,38.7
2018-05-05T11:36:53.614Z,38.8
2018-05-05T11:37:54.210Z,38.8
2018-05-05T11:38:54.916Z,38.9
2018-05-05T11:39:55.586Z,38.8
2018-05-05T11:40:56.253Z,38.9
2018-05-05T11:41:56.920Z,38.4
2018-05-05T11:42:57.589Z,38.4
2018-05-05T11:43:58.290Z,38.7
2018-05-05T11:44:58.957Z,38.8
2018-05-05T11:45:59.623Z,39.5
2018-05-05T11:47:00.291Z,38.8
2018-05-05T11:48:00.961Z,38.8
2018-05-05T11:49:01.630Z,38.8
2018-05-05T11:50:02.299Z,38.8
2018-05-05T11:51:02.967Z,38.6
2018-05-05T11:52:03.633Z,38.5
2018-05-05T11:53:04.299Z,38.3
2018-05-05T11:54:04.965Z,38.1
2018-05-05T11:55:05.633Z,38.9
2018-05-05T11:56:06.372Z,39.3
2018-05-05T11:57:06.967Z,39.3
2018-05-05T11:58:07.634Z,39.1
2018-05-05T11:59:08.302Z,39.6
2018-05-05T12:00:09.005Z,39.5
2018-05-05T12:01:09.672Z,39.1
2018-05-05T12:02:10.388Z,39.0
2018-05-05T12:03:11.081Z,39.2
2018-05-05T12:04:11.745Z,39.4
2018-05-05T12:05:12.448Z,39.6
2018-05-05T12:06:13.114Z,39.9
2018-05-05T12:07:13.785Z,39.3
2018-05-05T12:08:14.485Z,39.3
2018-05-05T12:09:15.188Z,39.4
2018-05-05T12:10:15.860Z,39.9
2018-05-05T12:11:16.562Z,39.6
2018-05-05T12:12:17.227Z,39.1
2018-05-05T12:13:17.893Z,38.9
2018-05-05T12:14:18.561Z,38.7
2018-05-05T12:15:19.227Z,39.5
2018-05-05T12:16:19.896Z,39.4
2018-05-05T12:17:20.562Z,39.8
2018-05-05T12:18:21.227Z,40.0
2018-05-05T12:19:21.946Z,39.4
2018-05-05T12:20:22.612Z,39.7
2018-05-05T12:21:23.283Z,39.5
2018-05-05T12:22:23.992Z,39.4
2018-05-05T12:23:24.616Z,39.5
2018-05-05T12:24:25.282Z,39.5
2018-05-05T12:25:25.950Z,39.5
2018-05-05T12:26:26.617Z,38.5
2018-05-05T12:27:27.285Z,39.0
2018-05-05T12:28:27.952Z,39.6
2018-05-05T12:29:28.620Z,40.4
2018-05-05T12:30:29.286Z,40.6
2018-05-05T12:31:29.952Z,40.9
2018-05-05T12:32:30.697Z,40.9
2018-05-05T12:33:31.288Z,41.0
2018-05-05T12:34:31.957Z,41.0
2018-05-05T12:35:32.624Z,40.7
2018-05-05T12:36:33.289Z,40.8
2018-05-05T12:37:33.956Z,40.3
2018-05-05T12:38:34.625Z,40.0
2018-05-05T12:39:35.291Z,39.7
2018-05-05T12:40:35.958Z,40.1
2018-05-05T12:41:36.624Z,39.3
2018-05-05T12:42:37.291Z,39.2
2018-05-05T12:43:37.964Z,39.6
2018-05-05T12:44:38.691Z,39.1
2018-05-05T12:45:39.295Z,39.0
2018-05-05T12:46:39.963Z,39.4
2018-05-05T12:47:40.629Z,39.5
2018-05-05T12:48:41.299Z,39.6
2018-05-05T12:49:41.964Z,39.4
2018-05-05T12:50:42.669Z,39.4
2018-05-05T12:51:43.333Z,39.2
2018-05-05T12:52:44.001Z,39.5
2018-05-05T12:53:44.670Z,39.4
2018-05-05T12:54:45.343Z,39.3
2018-05-05T12:55:46.017Z,39.4
2018-05-05T12:56:46.672Z,39.5
2018-05-05T12:57:47.339Z,39.4
2018-05-05T12:58:48.007Z,39.4
2018-05-05T12:59:48.676Z,39.3
2018-05-05T13:00:49.340Z,39.8
2018-05-05T13:01:50.008Z,39.9
2018-05-05T13:02:50.676Z,39.6
2018-05-05T13:03:51.340Z,39.3
2018-05-05T13:04:52.010Z,39.4
2018-05-05T13:05:52.712Z,39.5
2018-05-05T13:06:53.379Z,39.4
2018-05-05T13:07:54.046Z,38.9
2018-05-05T13:08:54.713Z,38.2
2018-05-05T13:09:55.420Z,37.9
2018-05-05T13:10:56.088Z,38.1
2018-05-05T13:11:56.767Z,38.0
2018-05-05T13:12:57.417Z,38.5
2018-05-05T13:13:58.088Z,38.1
2018-05-05T13:14:58.752Z,38.4
2018-05-05T13:15:59.418Z,38.9
2018-05-05T13:17:00.153Z,39.3
2018-05-05T13:18:00.753Z,38.9
2018-05-05T13:19:01.421Z,38.9
2018-05-05T13:20:02.089Z,39.3
2018-05-05T13:21:02.756Z,39.5
2018-05-05T13:22:03.424Z,39.5
2018-05-05T13:23:04.092Z,39.4
2018-05-05T13:24:04.761Z,38.9
2018-05-05T13:25:05.429Z,38.1
2018-05-05T13:26:06.098Z,38.2
2018-05-05T13:27:06.765Z,38.1
2018-05-05T13:28:07.432Z,37.4